Covedale, Ohio
Current Conditions -  °F | °C
As of 11:17 AM on Sunday 23 Nov 2014 (Local Time) from KI69 Reporting Station
Scattered Clouds Scattered Clouds  
Wind Chill: 61°   Ceiling: Unl
Heat Index: 61°   Visibility: 10mi
Dew Point: 41°   Wind: 9mph
Humidity: 48%   Direction: 180°S
Pressure: 29.91"   Gusts: NA
Location:  39.1091°N, 84.6112°W
Report Text: KI69 231617Z AUTO 18008KT 10SM SCT070 16/05 A2991 RMK AO1
Loading
Personal Weather Stations






























Interactive Weather Map New forecast layout! Learn more

10-Day Weather Forecast

Advertisements
Track Severe Weather on mobile